Strona główna
METAR-TAF:

METAR-TAF

Lotnisko :

Port lotniczy Hemavan

Hemavan, Szwecja

Szerokość geograficzna: 65-48-22N, Długość geograficzna: 015-04-58E, wysokość: 458 m

Aktualna obserwacja pogody

Raport powstał 29 minut temu, godzina 18:50 UTC
Wiatr 9 kt od południowy wschód
Temperatura 14°C
Wilgotność 77%
Ciśnienie 1012 hPa
Widzialność 10 km lub więcej

METAR: ESUT 181850Z AUTO 14009KT 9999 SCT028/// OVC059/// 14/10 Q1012

czas: 21:19 (19:19 UTC)


TAF: brakujący

Obserwacja i prognoza pogody dla ponad 4000 lotnisk (raport METAR i TAF).

Dostępne stacje oznaczono żółtymi i czerwonymi punktami na mapie.

Najedź kursorem aby zobaczyć nazwę stacji.

Kliknij aby zobaczyć obserwacje i prognozy pogody.

Aby zmienić mapę: kliknij na zielony przycisk z czarnym krzyżykiem, aby powiększyć; na zielony przycisk z myślnikiem, aby pomniejszyć; na zielone strzałki, aby przejść do map sąsiednich.


METAR-TAF: